Copas, Minnesota
Current Conditions -  °F | °C
As of 8:55 PM on Thursday 27 Nov 2014 (Local Time) from KOEO Reporting Station
Broken Clouds Broken Clouds  
Wind Chill: -4°   Ceiling: 12000
Heat Index:   Visibility: 10mi
Dew Point:   Wind: 9mph
Humidity: 70%   Direction: 170°S
Pressure: 30.34"   Gusts: NA
Location:  45.2742°N, 92.8215°W
Report Text: KOEO 280255Z AUTO 17008KT 10SM BKN120 M13/M17 A3034 RMK AO2 T11271172
Loading
Personal Weather Stations






























Interactive Weather Map New forecast layout! Learn more

10-Day Weather Forecast

Advertisements
Track Severe Weather on mobile